Time;durP1;ratioP1;P1;durP2;ratioP2;P2;SDS_P1;SDS_P2;PMS_P1;PMS_P2;Temp;Humidity;BMP_temperature;BMP_pressure;BME280_temperature;BME280_humidity;BME280_pressure;Samples;Min_cycle;Max_cycle;Signal;HPM_P1;HPM_P2
2022/07/19 00:02:21;;;;;;;;;;;;;;;17.98;52.57;100052.25;4958838;28;19925;-93
2022/07/19 00:04:46;;;;;;;;;;;;;;;17.98;52.66;100060.41;4960504;28;20056;-94
2022/07/19 00:07:11;;;;;;;;;;;;;;;17.91;53.10;100051.84;4958871;28;20020;-95
2022/07/19 00:09:37;;;;;;;;;;;;;;;17.83;52.84;100057.97;4958793;28;19925;-94
2022/07/19 00:12:02;;;;;;;;;;;;;;;17.81;53.24;100045.75;4958860;28;19949;-94
2022/07/19 00:14:30;;;;;;;;;;;;;;;17.72;53.82;100053.78;4959943;28;19918;-93
2022/07/19 00:16:55;;;;;;;;;;;;;;;17.65;54.16;100054.16;4960131;28;19914;-93
2022/07/19 00:19:21;;;;;;;;;;;;;;;17.65;54.22;100046.00;4967463;28;19918;-92
2022/07/19 00:21:46;;;;;;;;;;;;;;;17.60;53.74;100045.28;4962168;28;20005;-94
2022/07/19 00:24:12;;;;;;;;;;;;;;;17.58;53.94;100042.88;4959518;28;19914;-93
2022/07/19 00:26:37;;;;;;;;;;;;;;;17.57;54.13;100044.75;4959281;28;19918;-93
2022/07/19 00:29:02;;;;;;;;;;;;;;;17.54;54.55;100039.94;4959043;28;19935;-94
2022/07/19 00:31:28;;;;;;;;;;;;;;;17.54;54.75;100039.94;4959717;28;19914;-93
2022/07/19 00:33:53;;;;;;;;;;;;;;;17.51;54.80;100043.22;4958850;28;19921;-93
2022/07/19 00:36:18;;;;;;;;;;;;;;;17.49;55.20;100040.03;4959085;28;19920;-94
2022/07/19 00:38:44;;;;;;;;;;;;;;;17.49;54.75;100042.75;4958403;28;19972;-94
2022/07/19 00:41:09;;;;;;;;;;;;;;;17.48;54.99;100032.16;4958745;28;19914;-93
2022/07/19 00:43:34;;;;;;;;;;;;;;;17.45;55.05;100041.72;4958448;28;19918;-93
2022/07/19 00:46:00;;;;;;;;;;;;;;;17.41;55.05;100037.16;4974954;28;20379;-94
2022/07/19 00:48:25;;;;;;;;;;;;;;;17.38;55.55;100031.19;4958769;28;19921;-93
2022/07/19 00:50:50;;;;;;;;;;;;;;;17.37;55.32;100037.75;4958749;28;19942;-93
2022/07/19 00:53:16;;;;;;;;;;;;;;;17.37;55.40;100042.41;4959430;28;19921;-93
2022/07/19 00:55:41;;;;;;;;;;;;;;;17.24;55.90;100043.16;4958966;28;19918;-94
2022/07/19 00:58:06;;;;;;;;;;;;;;;17.21;55.49;100041.03;4974488;28;20036;-94
2022/07/19 01:00:32;;;;;;;;;;;;;;;17.17;55.62;100033.44;4958660;28;20308;-94
2022/07/19 01:02:58;;;;;;;;;;;;;;;17.15;55.71;100032.94;4958524;28;19921;-93
2022/07/19 01:05:23;;;;;;;;;;;;;;;17.11;55.83;100040.06;4958163;28;20293;-94
2022/07/19 01:07:48;;;;;;;;;;;;;;;17.07;55.81;100036.31;4958486;28;20016;-94
2022/07/19 01:10:14;;;;;;;;;;;;;;;17.00;56.00;100041.34;4958406;28;19949;-94
2022/07/19 01:12:39;;;;;;;;;;;;;;;16.87;56.41;100031.19;4958998;28;19928;-94
2022/07/19 01:15:15;;;;;;;;;;;;;;;16.85;57.16;100028.78;4958248;28;19918;-94
2022/07/19 01:17:40;;;;;;;;;;;;;;;16.93;56.75;100030.00;4958534;28;19965;-93
2022/07/19 01:20:06;;;;;;;;;;;;;;;16.98;56.33;100038.09;4957371;28;19915;-93
2022/07/19 01:22:31;;;;;;;;;;;;;;;16.92;56.92;100029.19;4939272;29;20380;-92
2022/07/19 01:24:57;;;;;;;;;;;;;;;16.99;56.11;100030.75;4939155;29;19918;-93
2022/07/19 01:27:22;;;;;;;;;;;;;;;16.95;56.77;100034.06;4939293;29;20013;-93
2022/07/19 01:29:47;;;;;;;;;;;;;;;16.98;56.80;100034.59;4939090;29;19914;-94
2022/07/19 01:32:12;;;;;;;;;;;;;;;16.93;57.14;100032.72;4939186;29;20377;-93
2022/07/19 01:34:38;;;;;;;;;;;;;;;16.89;57.20;100032.53;4939649;29;19922;-93
2022/07/19 01:37:03;;;;;;;;;;;;;;;16.93;57.13;100038.16;4939133;29;19914;-93
2022/07/19 01:39:28;;;;;;;;;;;;;;;16.94;56.66;100031.63;4939252;29;20377;-93
2022/07/19 01:41:54;;;;;;;;;;;;;;;16.85;57.23;100034.22;4939116;29;19970;-94
2022/07/19 01:44:19;;;;;;;;;;;;;;;16.86;57.05;100033.09;4938973;29;19923;-92
2022/07/19 01:46:44;;;;;;;;;;;;;;;16.86;57.13;100035.81;4939045;29;19919;-92
2022/07/19 01:49:10;;;;;;;;;;;;;;;16.85;57.25;100031.50;4939205;29;19922;-94
2022/07/19 01:51:35;;;;;;;;;;;;;;;16.82;56.58;100032.06;4939691;29;19914;-93
2022/07/19 01:54:00;;;;;;;;;;;;;;;16.85;57.32;100030.66;4938473;29;20005;-93
2022/07/19 01:56:26;;;;;;;;;;;;;;;16.79;57.47;100032.63;4939336;29;20336;-94
2022/07/19 01:58:51;;;;;;;;;;;;;;;16.74;57.45;100030.78;4939071;29;19919;-93
2022/07/19 02:01:16;;;;;;;;;;;;;;;16.74;57.26;100025.34;4939148;29;20368;-93
2022/07/19 02:03:41;;;;;;;;;;;;;;;16.77;57.64;100030.19;4938830;29;19914;-94
2022/07/19 02:06:07;;;;;;;;;;;;;;;16.75;57.43;100039.75;4939297;29;19972;-94
2022/07/19 02:08:32;;;;;;;;;;;;;;;16.81;57.72;100046.78;4938286;28;19914;-94
2022/07/19 02:10:59;;;;;;;;;;;;;;;16.72;57.77;100027.53;4943282;29;19918;-93
2022/07/19 02:13:24;;;;;;;;;;;;;;;16.69;57.84;100033.56;4943244;29;19922;-94
2022/07/19 02:15:50;;;;;;;;;;;;;;;16.68;57.85;100040.09;4941917;29;19915;-93
2022/07/19 02:18:15;;;;;;;;;;;;;;;16.63;58.38;100036.66;4942944;29;19914;-92
2022/07/19 02:20:40;;;;;;;;;;;;;;;16.60;58.49;100037.22;4942097;29;19918;-93
2022/07/19 02:23:06;;;;;;;;;;;;;;;16.52;58.65;100036.78;4958431;29;19922;-93
2022/07/19 02:25:31;;;;;;;;;;;;;;;16.41;59.17;100038.00;4942514;29;19918;-94
2022/07/19 02:27:56;;;;;;;;;;;;;;;16.39;59.62;100042.13;4941845;29;20393;-94
2022/07/19 02:30:22;;;;;;;;;;;;;;;16.26;59.28;100041.72;4941729;29;19968;-94
2022/07/19 02:32:47;;;;;;;;;;;;;;;16.21;59.37;100036.38;4941514;29;20013;-93
2022/07/19 02:35:12;;;;;;;;;;;;;;;16.17;59.51;100032.59;4941912;29;20032;-92
2022/07/19 02:37:39;;;;;;;;;;;;;;;16.08;59.73;100039.75;4941786;29;19914;-93
2022/07/19 02:40:04;;;;;;;;;;;;;;;16.10;59.66;100041.09;4941991;29;20065;-93
2022/07/19 02:42:29;;;;;;;;;;;;;;;16.07;59.82;100043.59;4942914;29;19970;-94
2022/07/19 02:44:55;;;;;;;;;;;;;;;16.02;60.03;100041.75;4941452;29;19923;-93
2022/07/19 02:47:20;;;;;;;;;;;;;;;16.03;59.85;100043.34;4942283;29;19922;-94
2022/07/19 02:49:45;;;;;;;;;;;;;;;15.89;60.11;100045.91;4942250;29;19915;-93
2022/07/19 02:52:11;;;;;;;;;;;;;;;15.90;60.33;100041.31;4941656;29;19919;-93
2022/07/19 02:54:36;;;;;;;;;;;;;;;15.80;60.67;100046.84;4942149;29;19914;-94
2022/07/19 02:57:01;;;;;;;;;;;;;;;15.81;60.71;100046.53;4941312;29;20392;-93
2022/07/19 02:59:27;;;;;;;;;;;;;;;15.85;60.67;100039.44;4941242;29;19915;-94
2022/07/19 03:01:53;;;;;;;;;;;;;;;15.81;60.83;100051.16;4941990;29;20005;-93
2022/07/19 03:04:18;;;;;;;;;;;;;;;15.78;60.69;100049.03;4957489;29;19922;-94
2022/07/19 03:06:43;;;;;;;;;;;;;;;15.75;61.10;100043.09;4940919;29;20005;-93
2022/07/19 03:09:08;;;;;;;;;;;;;;;15.71;61.24;100046.63;4941296;29;20024;-93
2022/07/19 03:11:34;;;;;;;;;;;;;;;15.70;61.15;100045.81;4941833;29;19914;-93
2022/07/19 03:13:59;;;;;;;;;;;;;;;15.72;61.20;100051.78;4941423;29;19922;-94
2022/07/19 03:16:24;;;;;;;;;;;;;;;15.71;60.96;100047.44;4941155;29;19961;-94
2022/07/19 03:18:50;;;;;;;;;;;;;;;15.68;61.40;100055.34;4942020;29;19946;-93
2022/07/19 03:21:15;;;;;;;;;;;;;;;15.66;61.36;100052.09;4942159;29;19982;-95
2022/07/19 03:23:40;;;;;;;;;;;;;;;15.68;61.33;100050.72;4942023;29;20316;-94
2022/07/19 03:26:06;;;;;;;;;;;;;;;15.69;61.21;100049.63;4941505;29;19942;-94
2022/07/19 03:28:32;;;;;;;;;;;;;;;15.76;61.40;100055.56;4941549;29;19919;-95
2022/07/19 03:30:57;;;;;;;;;;;;;;;15.65;61.60;100055.94;4947279;28;19920;-95
2022/07/19 03:33:22;;;;;;;;;;;;;;;15.45;62.32;100063.13;4960874;28;19914;-95
2022/07/19 03:35:48;;;;;;;;;;;;;;;15.38;62.45;100053.69;4961080;28;19914;-95
2022/07/19 03:38:13;;;;;;;;;;;;;;;15.28;63.09;100060.81;4961739;28;19914;-95
2022/07/19 03:40:39;;;;;;;;;;;;;;;15.29;63.33;100061.63;4962385;28;19957;-95
2022/07/19 03:43:04;;;;;;;;;;;;;;;15.19;63.58;100064.41;4963599;28;19914;-95
2022/07/19 03:45:30;;;;;;;;;;;;;;;15.16;63.69;100058.44;4963340;28;20009;-94
2022/07/19 03:47:55;;;;;;;;;;;;;;;15.25;63.35;100066.81;4961650;28;19914;-94
2022/07/19 03:50:20;;;;;;;;;;;;;;;15.43;63.10;100064.50;4960140;28;19925;-92
2022/07/19 03:52:45;;;;;;;;;;;;;;;15.59;62.24;100076.06;4961128;28;19984;-92
2022/07/19 03:55:11;;;;;;;;;;;;;;;15.64;62.21;100084.16;4958850;28;19918;-91
2022/07/19 03:57:36;;;;;;;;;;;;;;;15.71;61.93;100076.50;4960135;28;19914;-92
2022/07/19 04:00:02;;;;;;;;;;;;;;;15.78;61.68;100073.47;4959410;28;19922;-92
2022/07/19 04:02:27;;;;;;;;;;;;;;;15.72;61.59;100083.56;4959586;28;20300;-94
2022/07/19 04:04:53;;;;;;;;;;;;;;;15.72;61.59;100081.66;4959902;28;20048;-91
2022/07/19 04:07:18;;;;;;;;;;;;;;;15.71;61.85;100084.66;4958692;28;19958;-89
2022/07/19 04:09:43;;;;;;;;;;;;;;;15.70;61.93;100083.00;4958644;28;19997;-91
2022/07/19 04:12:08;;;;;;;;;;;;;;;15.70;61.70;100081.09;4960175;28;19917;-92
2022/07/19 04:14:34;;;;;;;;;;;;;;;15.75;61.93;100085.72;4941220;29;19956;-93
2022/07/19 04:16:59;;;;;;;;;;;;;;;15.73;61.81;100082.50;4940490;29;19921;-92
2022/07/19 04:19:26;;;;;;;;;;;;;;;15.75;61.65;100085.72;4939833;29;20218;-93
2022/07/19 04:21:52;;;;;;;;;;;;;;;15.74;61.83;100089.53;4923717;28;20001;-92
2022/07/19 04:24:17;;;;;;;;;;;;;;;15.88;60.81;100087.78;4960582;28;20012;-95
2022/07/19 04:26:42;;;;;;;;;;;;;;;16.00;60.62;100092.00;4961609;28;20392;-94
2022/07/19 04:29:08;;;;;;;;;;;;;;;16.08;60.72;100085.94;4961905;28;19921;-95
2022/07/19 04:31:33;;;;;;;;;;;;;;;16.07;60.37;100085.13;4961750;28;19914;-95
2022/07/19 04:37:05;;;;;;;;;;;;;;;16.30;58.80;100088.16;4983046;28;19941;-96
2022/07/19 04:39:32;;;;;;;;;;;;;;;16.44;58.69;100093.72;4974550;28;19907;-96
2022/07/19 04:42:00;;;;;;;;;;;;;;;16.50;58.30;100085.22;5366889;23;19926;-96
2022/07/19 04:44:29;;;;;;;;;;;;;;;16.62;57.61;100083.97;5436508;23;20180;31
2022/07/19 04:46:58;;;;;;;;;;;;;;;16.79;57.16;100087.03;5003740;28;19926;-96
2022/07/19 04:49:24;;;;;;;;;;;;;;;16.81;55.85;100089.47;4993629;28;19918;-96
2022/07/19 04:51:52;;;;;;;;;;;;;;;16.84;56.29;100088.91;4993700;28;19914;-96
2022/07/19 04:54:25;;;;;;;;;;;;;;;17.00;56.70;100084.88;4969683;28;19910;-96
2022/07/19 04:56:59;;;;;;;;;;;;;;;17.19;54.65;100084.06;4947630;28;20012;-96
2022/07/19 04:59:26;;;;;;;;;;;;;;;17.32;54.40;100089.53;4995925;28;19917;-96
2022/07/19 05:01:54;;;;;;;;;;;;;;;17.41;54.35;100089.72;4967544;28;20382;-95
2022/07/19 05:04:32;;;;;;;;;;;;;;;17.49;53.18;100088.22;4966329;28;19914;-96
2022/07/19 05:06:59;;;;;;;;;;;;;;;17.61;53.39;100090.47;4936232;28;19918;-95
2022/07/19 05:09:24;;;;;;;;;;;;;;;17.74;52.83;100095.16;4961671;28;19917;-92
2022/07/19 05:11:50;;;;;;;;;;;;;;;17.89;52.60;100094.94;4960753;28;20005;-91
2022/07/19 05:14:15;;;;;;;;;;;;;;;18.03;52.37;100096.84;4961193;28;20434;-92
2022/07/19 05:16:41;;;;;;;;;;;;;;;18.09;52.58;100091.00;4978011;28;20379;-93
2022/07/19 05:19:12;;;;;;;;;;;;;;;18.28;51.45;100099.13;4961147;28;19929;-96
2022/07/19 05:21:52;;;;;;;;;;;;;;;18.46;50.76;100099.31;4984900;28;19914;-96
2022/07/19 05:24:18;;;;;;;;;;;;;;;18.48;51.34;100094.38;5003561;28;19913;-90
2022/07/19 05:26:43;;;;;;;;;;;;;;;18.44;51.10;100102.34;4967040;28;19941;-93
2022/07/19 05:29:08;;;;;;;;;;;;;;;18.57;50.94;100095.25;4961415;28;20362;-91
2022/07/19 05:31:34;;;;;;;;;;;;;;;18.59;50.68;100090.31;4975733;28;20008;-90
2022/07/19 05:33:59;;;;;;;;;;;;;;;18.69;50.46;100098.28;4969882;28;20004;-93
2022/07/19 05:36:24;;;;;;;;;;;;;;;18.75;50.84;100093.53;4957899;28;20008;-91
2022/07/19 05:38:50;;;;;;;;;;;;;;;18.77;50.64;100097.56;4967101;28;20356;-93
2022/07/19 05:41:16;;;;;;;;;;;;;;;18.88;49.90;100091.94;4961724;28;19924;-94
2022/07/19 05:43:42;;;;;;;;;;;;;;;19.00;50.04;100092.22;4976296;28;20350;-94
2022/07/19 05:46:07;;;;;;;;;;;;;;;19.14;49.15;100092.19;4977227;28;19926;-95
2022/07/19 05:48:36;;;;;;;;;;;;;;;19.20;49.04;100087.41;4968835;28;19918;-96
2022/07/19 05:51:01;;;;;;;;;;;;;;;19.26;48.29;100089.72;4967049;28;19914;-96
2022/07/19 05:53:27;;;;;;;;;;;;;;;19.38;48.68;100091.88;5000830;28;20013;-94
2022/07/19 05:55:52;;;;;;;;;;;;;;;19.56;48.69;100084.63;5002862;28;20363;-94
2022/07/19 05:58:18;;;;;;;;;;;;;;;19.61;48.35;100089.97;4982079;28;19913;-94
2022/07/19 06:01:17;;;;;;;;;;;;;;;19.74;48.07;100091.84;4986226;28;20272;-94
2022/07/19 06:06:39;;;;;;;;;;;;;;;19.94;46.49;100084.22;4983305;28;19941;-95
2022/07/19 06:09:25;;;;;;;;;;;;;;;20.10;47.01;100090.91;4968026;28;19914;-95
2022/07/19 06:11:52;;;;;;;;;;;;;;;20.12;45.39;100096.88;4980755;28;19921;-95
2022/07/19 06:14:20;;;;;;;;;;;;;;;20.26;44.94;100090.50;4965795;28;19918;-95
2022/07/19 06:16:45;;;;;;;;;;;;;;;20.37;44.74;100086.34;4965784;28;19914;-94
2022/07/19 06:19:11;;;;;;;;;;;;;;;20.50;45.36;100088.19;4973447;28;20012;-95
2022/07/19 06:21:42;;;;;;;;;;;;;;;20.65;45.24;100083.41;4965754;28;19914;-95
2022/07/19 06:24:07;;;;;;;;;;;;;;;20.82;44.95;100079.91;4987002;28;20392;-92
2022/07/19 06:26:36;;;;;;;;;;;;;;;20.95;44.86;100082.50;4962138;28;19918;-91
2022/07/19 06:29:07;;;;;;;;;;;;;;;21.13;44.58;100072.38;4947500;29;19914;-92
2022/07/19 06:31:32;;;;;;;;;;;;;;;21.30;43.90;100073.50;4953492;28;19925;-90
2022/07/19 06:37:01;;;;;;;;;;;;;;;21.73;42.24;100078.16;5013862;28;19920;-94
2022/07/19 06:39:44;;;;;;;;;;;;;;;;;;;;;
2022/07/19 06:42:10;;;;;;;;;;;;;;;22.08;42.15;100080.75;4985404;28;20009;-89
2022/07/19 06:44:35;;;;;;;;;;;;;;;22.19;41.16;100074.59;4965191;28;20410;-91
2022/07/19 06:47:00;;;;;;;;;;;;;;;22.32;39.56;100072.78;4980317;28;20001;-88
2022/07/19 06:49:26;;;;;;;;;;;;;;;22.50;39.98;100064.47;4981609;28;20371;-90
2022/07/19 06:51:51;;;;;;;;;;;;;;;22.62;38.45;100069.25;4964810;28;19913;-88
2022/07/19 07:05:41;;;;;;;;;;;;;;;23.05;35.76;100036.00;5660133;23;19930;-96
2022/07/19 07:08:31;;;;;;;;;;;;;;;23.41;35.57;100070.28;4996808;28;19997;-96
2022/07/19 07:16:57;;;;;;;;;;;;;;;23.85;34.43;100067.94;5411986;23;19957;-92
2022/07/19 07:19:48;;;;;;;;;;;;;;;23.94;33.07;100070.56;5349096;23;19972;-96
2022/07/19 07:22:17;;;;;;;;;;;;;;;24.13;32.73;100070.81;4968692;28;19925;-92
2022/07/19 07:24:52;;;;;;;;;;;;;;;24.23;31.87;100080.56;4927148;29;19921;-91
2022/07/19 07:27:24;;;;;;;;;;;;;;;24.35;32.00;100068.78;4938376;28;19918;-91
2022/07/19 07:30:00;;;;;;;;;;;;;;;24.48;31.87;100075.06;4967335;28;20009;-90
2022/07/19 07:32:28;;;;;;;;;;;;;;;24.63;30.70;100073.59;4966305;28;19914;-94
2022/07/19 07:41:12;;;;;;;;;;;;;;;24.98;29.54;100060.91;4926381;29;19916;-95
2022/07/19 07:44:09;;;;;;;;;;;;;;;25.11;26.14;100067.19;4920503;29;19983;-92
2022/07/19 07:47:08;;;;;;;;;;;;;;;;;;;;;
2022/07/19 07:49:46;;;;;;;;;;;;;;;25.29;26.22;100064.16;4932591;29;19946;-92
2022/07/19 07:55:32;;;;;;;;;;;;;;;25.59;23.96;100064.63;4866073;29;20339;-95
2022/07/19 07:57:57;;;;;;;;;;;;;;;25.70;23.54;100067.66;4921571;28;19914;-95
2022/07/19 08:00:23;;;;;;;;;;;;;;;25.65;24.70;100067.91;4966787;28;19920;-95
2022/07/19 08:02:51;;;;;;;;;;;;;;;25.70;23.96;100068.44;4971292;28;19914;-95
2022/07/19 08:05:21;;;;;;;;;;;;;;;25.75;24.73;100064.63;4963082;28;19945;-93
2022/07/19 08:07:50;;;;;;;;;;;;;;;25.80;24.80;100064.38;4927427;29;19928;-95
2022/07/19 08:10:32;;;;;;;;;;;;;;;25.93;25.12;100065.13;4928049;29;19922;-95
2022/07/19 08:13:08;;;;;;;;;;;;;;;26.06;24.40;100068.59;4949234;29;19918;-94
2022/07/19 08:15:45;;;;;;;;;;;;;;;26.11;23.88;100073.88;4928894;29;19914;-95
2022/07/19 08:20:58;;;;;;;;;;;;;;;26.13;24.25;100068.78;4907843;29;20448;-92
2022/07/19 08:23:23;;;;;;;;;;;;;;;26.19;24.05;100068.16;4939393;29;19919;-95
2022/07/19 08:25:48;;;;;;;;;;;;;;;26.19;23.82;100065.41;4919966;29;20014;-95
2022/07/19 08:30:59;;;;;;;;;;;;;;;26.25;22.51;100065.94;4913185;29;19974;-92
2022/07/19 08:33:25;;;;;;;;;;;;;;;26.20;23.11;100064.22;4901325;29;19915;-94
2022/07/19 08:35:50;;;;;;;;;;;;;;;26.36;23.34;100074.47;4902679;29;19915;-94
2022/07/19 08:38:15;;;;;;;;;;;;;;;26.41;23.48;100072.22;4904686;29;19951;-92
2022/07/19 08:43:38;;;;;;;;;;;;;;;26.55;23.42;100057.16;4921021;29;19926;-96
2022/07/19 08:46:07;;;;;;;;;;;;;;;26.60;22.76;100057.72;4908124;29;19923;-93
2022/07/19 08:48:34;;;;;;;;;;;;;;;26.57;22.33;100057.63;4921456;29;19915;-93
2022/07/19 08:51:00;;;;;;;;;;;;;;;26.55;22.48;100057.16;4911487;29;19921;-92
2022/07/19 08:53:26;;;;;;;;;;;;;;;26.63;21.83;100050.66;4931672;29;19915;-91
2022/07/19 08:55:52;;;;;;;;;;;;;;;26.74;22.09;100067.47;4933536;29;19918;-95
2022/07/19 08:58:17;;;;;;;;;;;;;;;26.66;22.20;100058.22;4908599;29;19942;-93
2022/07/19 09:00:43;;;;;;;;;;;;;;;26.71;22.02;100057.13;4907855;29;19914;-93
2022/07/19 09:03:08;;;;;;;;;;;;;;;26.80;22.21;100061.28;4908449;29;20013;-92
2022/07/19 09:05:34;;;;;;;;;;;;;;;26.74;22.94;100062.75;4908670;29;19921;-95
2022/07/19 09:08:02;;;;;;;;;;;;;;;26.81;23.15;100053.81;4907958;29;20038;-91
2022/07/19 09:10:29;;;;;;;;;;;;;;;26.90;23.00;100043.34;4938876;29;19922;-93
2022/07/19 09:13:11;;;;;;;;;;;;;;;27.07;23.87;100049.63;4907017;29;19915;-92
2022/07/19 09:15:54;;;;;;;;;;;;;;;27.16;23.98;100047.44;4906952;29;20496;-92
2022/07/19 09:18:26;;;;;;;;;;;;;;;27.20;22.62;100040.78;4924916;29;19918;-94
2022/07/19 09:20:52;;;;;;;;;;;;;;;27.23;24.72;100031.03;4912902;29;20021;-93
2022/07/19 09:23:18;;;;;;;;;;;;;;;27.36;23.63;100037.97;4916855;28;19971;-91
2022/07/19 09:25:48;;;;;;;;;;;;;;;27.36;23.73;100051.81;4967959;28;19915;-91
2022/07/19 09:28:20;;;;;;;;;;;;;;;27.28;24.17;100039.00;4962542;28;20387;-91
2022/07/19 09:31:14;;;;;;;;;;;;;;;26.92;24.22;100031.94;4921501;29;20001;-91
2022/07/19 09:33:46;;;;;;;;;;;;;;;26.99;24.94;100023.78;4928124;29;19981;-92
2022/07/19 09:36:12;;;;;;;;;;;;;;;27.08;24.95;100029.09;4928166;29;19915;-92
2022/07/19 09:38:39;;;;;;;;;;;;;;;27.02;25.40;100037.69;4926905;29;19915;-93
2022/07/19 09:41:21;;;;;;;;;;;;;;;26.90;24.74;100039.81;4912706;29;19922;-91
2022/07/19 09:43:54;;;;;;;;;;;;;;;26.97;24.75;100029.66;4925489;29;19919;-92
2022/07/19 09:46:39;;;;;;;;;;;;;;;27.03;24.41;100035.72;4894094;29;19919;-93
2022/07/19 09:49:07;;;;;;;;;;;;;;;27.08;24.50;100032.69;4907808;29;19915;-92
2022/07/19 09:51:42;;;;;;;;;;;;;;;27.10;24.88;100030.34;4946058;29;19914;-94
2022/07/19 09:54:12;;;;;;;;;;;;;;;27.13;25.04;100021.31;4940453;29;19926;-92
2022/07/19 09:56:44;;;;;;;;;;;;;;;27.04;24.45;100028.22;4937282;29;19918;-92
2022/07/19 09:59:10;;;;;;;;;;;;;;;27.09;24.82;100025.97;4934200;29;19918;-95
2022/07/19 10:01:38;;;;;;;;;;;;;;;27.16;25.51;100017.81;4924272;29;19938;-93
2022/07/19 10:07:06;;;;;;;;;;;;;;;27.39;24.48;100014.31;4930461;28;20297;-92
2022/07/19 10:09:32;;;;;;;;;;;;;;;27.42;24.60;100013.59;4930035;28;19922;-88
2022/07/19 10:12:04;;;;;;;;;;;;;;;27.45;24.22;100010.09;4944497;29;19915;-94
2022/07/19 10:14:40;;;;;;;;;;;;;;;;;;;;;
2022/07/19 10:17:11;;;;;;;;;;;;;;;27.56;24.10;100002.78;4939417;29;19998;-93
2022/07/19 10:22:32;;;;;;;;;;;;;;;27.71;23.87;100001.06;4957766;28;19927;-94
2022/07/19 10:30:24;;;;;;;;;;;;;;;27.85;23.71;99978.38;4955926;28;19914;-95
2022/07/19 10:32:51;;;;;;;;;;;;;;;27.95;24.36;99979.72;4912623;29;19943;-96
2022/07/19 10:35:19;;;;;;;;;;;;;;;27.92;23.40;99980.50;4909613;29;20010;-93
2022/07/19 10:38:10;;;;;;;;;;;;;;;;;;;;;
2022/07/19 10:40:40;;;;;;;;;;;;;;;28.14;23.86;99976.88;4930670;29;19991;-96
2022/07/19 10:49:00;;;;;;;;;;;;;;;28.26;23.72;99970.31;5227711;23;19925;-93
2022/07/19 10:51:34;;;;;;;;;;;;;;;28.17;23.21;99964.25;4997809;28;19921;-92
2022/07/19 10:54:05;;;;;;;;;;;;;;;28.11;23.41;99972.09;4971453;28;20428;-92
2022/07/19 10:56:41;;;;;;;;;;;;;;;28.08;23.31;99964.53;4968413;28;20004;-93
2022/07/19 10:59:15;;;;;;;;;;;;;;;28.09;23.20;99957.03;4966871;28;19985;-93
2022/07/19 11:01:54;;;;;;;;;;;;;;;28.22;22.92;99947.31;4973059;28;19918;-96
2022/07/19 11:04:37;;;;;;;;;;;;;;;28.29;22.42;99952.16;4967319;28;19961;-94
2022/07/19 11:07:09;;;;;;;;;;;;;;;28.29;22.51;99941.88;4982605;28;19941;-94
2022/07/19 11:09:48;;;;;;;;;;;;;;;28.35;22.81;99936.81;4981050;28;19913;-92
2022/07/19 11:15:29;;;;;;;;;;;;;;;28.63;22.78;99939.19;4924074;29;20369;-96
2022/07/19 11:18:19;;;;;;;;;;;;;;;;;;;;;
2022/07/19 11:20:45;;;;;;;;;;;;;;;28.81;22.62;99928.31;4924226;29;20441;-96
2022/07/19 11:23:24;;;;;;;;;;;;;;;28.92;22.04;99915.34;4917781;29;19923;-96
2022/07/19 11:25:51;;;;;;;;;;;;;;;29.12;23.25;99920.75;4900641;29;19912;-96
2022/07/19 11:31:17;;;;;;;;;;;;;;;29.46;22.83;99906.78;5834008;23;19926;-96
2022/07/19 11:33:43;;;;;;;;;;;;;;;29.53;22.26;99912.38;5005938;28;19918;-96
2022/07/19 11:36:17;;;;;;;;;;;;;;;29.50;21.88;99919.50;5003843;28;20024;-92
2022/07/19 11:38:45;;;;;;;;;;;;;;;29.49;21.71;99906.84;4965408;28;19921;-93
2022/07/19 11:41:16;;;;;;;;;;;;;;;29.61;21.31;99912.09;4979826;28;19920;-94
2022/07/19 11:43:41;;;;;;;;;;;;;;;29.66;21.64;99905.38;4963675;28;19914;-94
2022/07/19 11:46:06;;;;;;;;;;;;;;;29.65;21.05;99894.66;4965334;28;20348;-93
2022/07/19 11:48:33;;;;;;;;;;;;;;;29.73;20.98;99899.88;4965808;28;19960;-95
2022/07/19 11:54:43;;;;;;;;;;;;;;;;;;;;;
2022/07/19 12:10:20;;;;;;;;;;;;;;;29.85;21.70;99879.34;4909066;29;19921;-96
2022/07/19 12:12:49;;;;;;;;;;;;;;;29.75;21.02;99880.88;4903151;29;19920;-94
2022/07/19 12:15:27;;;;;;;;;;;;;;;29.97;21.10;99879.03;4887898;29;19937;-93
2022/07/19 12:17:59;;;;;;;;;;;;;;;30.09;21.28;99871.53;4903065;29;19915;-94
2022/07/19 12:20:24;;;;;;;;;;;;;;;30.13;20.69;99862.06;4927146;28;20381;-94
2022/07/19 12:22:53;;;;;;;;;;;;;;;30.05;20.71;99862.41;4986320;28;19996;-90
2022/07/19 12:25:34;;;;;;;;;;;;;;;29.95;21.27;99858.41;4978498;28;20403;-94
2022/07/19 12:28:00;;;;;;;;;;;;;;;30.14;21.56;99858.09;4966376;28;20008;-95
2022/07/19 12:30:31;;;;;;;;;;;;;;;30.13;21.16;99861.25;4983241;28;19964;-91
2022/07/19 12:33:06;;;;;;;;;;;;;;;30.00;21.06;99860.78;4988141;28;19926;-94
2022/07/19 12:35:43;;;;;;;;;;;;;;;29.83;20.90;99853.97;4984702;28;20461;-93
2022/07/19 12:38:11;;;;;;;;;;;;;;;29.99;20.86;99857.22;4983403;28;19914;-94
2022/07/19 12:40:37;;;;;;;;;;;;;;;29.96;20.41;99849.66;4965899;28;19914;-91
2022/07/19 12:43:03;;;;;;;;;;;;;;;30.18;20.40;99844.22;4964862;28;19968;-90
2022/07/19 12:45:31;;;;;;;;;;;;;;;30.26;20.50;99845.03;4965024;28;19921;-92
2022/07/19 12:47:57;;;;;;;;;;;;;;;30.23;21.12;99844.63;4969592;28;19925;-91
2022/07/19 12:50:28;;;;;;;;;;;;;;;30.35;20.63;99843.53;4963109;28;19920;-91
2022/07/19 12:52:57;;;;;;;;;;;;;;;30.59;20.25;99844.81;4981995;28;20395;-94
2022/07/19 12:55:23;;;;;;;;;;;;;;;30.66;19.70;99852.34;4975759;28;19925;-94
2022/07/19 12:57:48;;;;;;;;;;;;;;;30.73;19.87;99832.09;4982706;28;19913;-93
2022/07/19 13:00:14;;;;;;;;;;;;;;;30.74;20.07;99839.28;4966143;28;19953;-93
2022/07/19 13:02:49;;;;;;;;;;;;;;;30.78;19.12;99828.97;4985048;28;19913;-95
2022/07/19 13:05:14;;;;;;;;;;;;;;;30.86;20.19;99825.00;4984968;28;20001;-95
2022/07/19 13:07:48;;;;;;;;;;;;;;;31.06;19.62;99833.78;4984236;28;19988;-95
2022/07/19 13:10:13;;;;;;;;;;;;;;;31.12;19.17;99820.28;4984369;28;21182;-92
2022/07/19 13:12:44;;;;;;;;;;;;;;;31.20;20.00;99833.78;4977392;28;19926;-93
2022/07/19 13:15:09;;;;;;;;;;;;;;;31.25;19.54;99829.78;4993948;28;19981;-93
2022/07/19 13:17:37;;;;;;;;;;;;;;;30.90;19.38;99825.00;4973837;28;19953;-92
2022/07/19 13:20:04;;;;;;;;;;;;;;;31.19;18.80;99823.84;4976220;28;19914;-93
2022/07/19 13:22:31;;;;;;;;;;;;;;;31.50;19.22;99824.25;4973004;28;20379;-93
2022/07/19 13:25:06;;;;;;;;;;;;;;;31.62;19.53;99823.81;4965847;28;20016;-96
2022/07/19 13:28:07;;;;;;;;;;;;;;;31.79;19.67;99811.06;4992970;28;19917;-94
2022/07/19 13:30:33;;;;;;;;;;;;;;;32.07;19.28;99809.41;4917356;29;20397;-93
2022/07/19 13:33:14;;;;;;;;;;;;;;;32.36;18.57;99807.28;4964041;28;19925;-95
2022/07/19 13:35:39;;;;;;;;;;;;;;;32.62;18.07;99810.72;4964184;28;19953;-94
2022/07/19 13:38:04;;;;;;;;;;;;;;;32.02;18.12;99801.44;4964711;28;19914;-94
2022/07/19 13:40:31;;;;;;;;;;;;;;;32.25;18.33;99803.75;4963094;28;19914;-96
2022/07/19 13:42:59;;;;;;;;;;;;;;;32.26;17.65;99810.91;4963675;28;19973;-94
2022/07/19 13:45:24;;;;;;;;;;;;;;;32.25;18.29;99795.41;4980160;28;19914;-94
2022/07/19 13:47:58;;;;;;;;;;;;;;;32.55;17.66;99796.84;4964402;28;19925;-94
2022/07/19 13:50:31;;;;;;;;;;;;;;;32.82;17.56;99795.06;4920804;29;20385;-93
2022/07/19 13:53:05;;;;;;;;;;;;;;;32.59;17.19;99792.81;4925302;29;19922;-95
2022/07/19 14:01:53;;;;;;;;;;;;;;;33.72;16.62;99774.72;4897937;29;19948;-93
2022/07/19 14:04:18;;;;;;;;;;;;;;;34.04;16.38;99778.34;4899308;29;20015;-94
2022/07/19 14:06:43;;;;;;;;;;;;;;;34.31;16.56;99773.63;4938668;29;19918;-94
2022/07/19 14:09:09;;;;;;;;;;;;;;;34.51;15.68;99773.72;4923983;29;19915;-93
2022/07/19 14:21:11;;;;;;;;;;;;;;;35.28;14.46;99766.53;4867009;29;19923;-93
2022/07/19 14:23:57;;;;;;;;;;;;;;;35.79;14.87;99763.56;4875647;29;19915;-94
2022/07/19 14:26:25;;;;;;;;;;;;;;;36.16;14.59;99758.81;4955388;28;19918;-94
2022/07/19 14:28:56;;;;;;;;;;;;;;;35.48;15.01;99760.94;4948563;28;20458;-92
2022/07/19 14:31:21;;;;;;;;;;;;;;;35.46;14.76;99759.78;4948382;28;19921;-94
2022/07/19 14:33:57;;;;;;;;;;;;;;;;;;;;;
2022/07/19 14:36:22;;;;;;;;;;;;;;;36.62;14.02;99754.16;4983093;28;19920;-94